Time;durP1;ratioP1;P1;durP2;ratioP2;P2;SDS_P1;SDS_P2;PMS_P1;PMS_P2;Temp;Humidity;BMP_temperature;BMP_pressure;BME280_temperature;BME280_humidity;BME280_pressure;Samples;Min_cycle;Max_cycle;Signal;HPM_P1;HPM_P2
2021/05/31 07:16:17;;;;;;;2.60;1.70;;;30.20;80.20;;;;;;5014524;23;20250;-70
2021/05/31 07:18:43;;;;;;;3.03;1.70;;;29.10;79.40;;;;;;4989884;28;20206;-70
2021/05/31 07:21:09;;;;;;;2.88;1.73;;;28.30;80.40;;;;;;4992786;28;20253;-69
2021/05/31 07:23:37;;;;;;;2.95;1.77;;;28.30;81.70;;;;;;4986743;28;20799;-71
2021/05/31 07:26:04;;;;;;;3.08;1.95;;;28.50;80.20;;;;;;4981915;28;20202;-70
2021/05/31 07:28:30;;;;;;;2.53;1.63;;;28.10;80.60;;;;;;4991995;28;20268;-71
2021/05/31 07:30:57;;;;;;;2.55;1.58;;;28.30;81.30;;;;;;4991909;28;20272;-71
2021/05/31 07:33:24;;;;;;;2.28;1.45;;;28.00;79.60;;;;;;4991939;28;20234;-69
2021/05/31 07:35:51;;;;;;;2.30;1.45;;;28.10;81.20;;;;;;4992397;28;20210;-70
2021/05/31 07:38:17;;;;;;;2.42;1.52;;;28.90;80.60;;;;;;4991629;28;20266;-70
2021/05/31 07:40:44;;;;;;;2.30;1.63;;;29.40;75.80;;;;;;4992544;28;20207;-74
2021/05/31 07:43:10;;;;;;;2.53;1.60;;;28.80;76.40;;;;;;4991999;28;20624;-72
2021/05/31 07:45:37;;;;;;;1.70;1.42;;;28.40;77.00;;;;;;4991025;28;20216;-70
2021/05/31 07:48:04;;;;;;;2.22;1.40;;;28.30;75.40;;;;;;4991687;28;20237;-71
2021/05/31 07:50:32;;;;;;;2.97;1.52;;;28.40;75.20;;;;;;4991596;28;20244;-73
2021/05/31 07:52:58;;;;;;;3.78;1.50;;;28.70;75.00;;;;;;4990254;28;20226;-71
2021/05/31 07:55:24;;;;;;;1.73;1.35;;;28.50;74.90;;;;;;4992025;28;20207;-72
2021/05/31 07:57:52;;;;;;;2.35;1.58;;;29.00;75.10;;;;;;4991832;28;20206;-72
2021/05/31 08:00:22;;;;;;;2.63;1.50;;;29.20;73.50;;;;;;4991008;28;20735;-72
2021/05/31 08:02:48;;;;;;;1.98;1.17;;;29.50;74.30;;;;;;4991317;28;20226;-73
2021/05/31 08:05:16;;;;;;;2.50;1.50;;;29.40;73.00;;;;;;4992111;28;20202;-74
2021/05/31 08:07:46;;;;;;;3.50;1.60;;;29.10;73.30;;;;;;4990978;28;20214;-73
2021/05/31 08:10:13;;;;;;;3.75;1.50;;;29.70;72.70;;;;;;4991405;28;20232;-75
2021/05/31 08:12:40;;;;;;;2.72;1.50;;;30.50;69.30;;;;;;4991241;28;20227;-72
2021/05/31 08:15:08;;;;;;;2.63;1.10;;;30.60;69.00;;;;;;4991395;28;20216;-72
2021/05/31 08:17:35;;;;;;;1.85;1.38;;;30.20;69.10;;;;;;4993503;28;20681;-72
2021/05/31 08:20:01;;;;;;;3.15;1.30;;;30.00;69.60;;;;;;4995712;28;20679;-71
2021/05/31 08:22:27;;;;;;;1.73;1.30;;;30.00;69.10;;;;;;4994300;28;20222;-74
2021/05/31 08:24:55;;;;;;;2.25;1.38;;;30.40;71.10;;;;;;4995192;28;20218;-72
2021/05/31 08:27:21;;;;;;;1.60;1.10;;;31.10;67.10;;;;;;4995373;28;20210;-72
2021/05/31 08:29:48;;;;;;;2.05;1.25;;;29.80;65.40;;;;;;4994794;28;20368;-70
2021/05/31 08:32:14;;;;;;;2.25;1.33;;;29.50;66.90;;;;;;4995886;28;20744;-70
2021/05/31 08:34:40;;;;;;;1.33;1.20;;;29.60;68.40;;;;;;4996633;28;20206;-73
2021/05/31 08:37:07;;;;;;;2.05;1.10;;;30.00;65.20;;;;;;4996191;28;20684;-69
2021/05/31 08:39:33;;;;;;;1.75;1.23;;;31.20;67.10;;;;;;4996090;28;20214;-69
2021/05/31 08:42:01;;;;;;;1.45;1.17;;;30.90;66.70;;;;;;4996452;28;20646;-72
2021/05/31 08:44:29;;;;;;;1.73;1.40;;;31.40;66.00;;;;;;4995811;28;20220;-74
2021/05/31 08:46:56;;;;;;;1.20;1.08;;;31.30;63.40;;;;;;4996001;28;20214;-74
2021/05/31 08:49:24;;;;;;;1.15;1.05;;;30.80;63.20;;;;;;4990656;28;20212;-73
2021/05/31 08:51:50;;;;;;;1.42;1.27;;;30.90;64.00;;;;;;4976477;28;20705;-73
2021/05/31 08:54:17;;;;;;;2.80;1.40;;;31.30;64.30;;;;;;4983908;28;20226;-72
2021/05/31 08:56:44;;;;;;;1.58;1.15;;;30.90;65.60;;;;;;4996044;28;20218;-73
2021/05/31 08:59:12;;;;;;;2.55;1.38;;;31.00;65.10;;;;;;4995283;28;20261;-75
2021/05/31 09:01:38;;;;;;;1.92;1.30;;;30.90;66.60;;;;;;4995136;28;20559;-76
2021/05/31 09:04:05;;;;;;;2.03;1.40;;;30.60;64.60;;;;;;4995481;28;20296;-73
2021/05/31 09:06:33;;;;;;;2.72;1.30;;;29.40;67.50;;;;;;4995395;28;20202;-78
2021/05/31 09:09:01;;;;;;;2.00;1.25;;;28.90;68.50;;;;;;4995386;28;20203;-73
2021/05/31 09:11:29;;;;;;;3.80;1.30;;;28.40;69.30;;;;;;4994774;28;20325;-70
2021/05/31 09:13:56;;;;;;;1.48;1.20;;;28.30;68.90;;;;;;4995204;28;20704;-69
2021/05/31 09:16:25;;;;;;;1.52;1.30;;;29.00;67.60;;;;;;4994763;28;20257;-74
2021/05/31 09:18:53;;;;;;;1.60;1.30;;;28.50;67.70;;;;;;4994507;28;20300;-69
2021/05/31 09:21:21;;;;;;;2.33;1.17;;;27.70;69.70;;;;;;4994216;28;20210;-72
2021/05/31 09:23:52;;;;;;;3.78;1.30;;;27.20;69.40;;;;;;4995460;28;20238;-70
2021/05/31 09:26:18;;;;;;;1.38;1.08;;;26.90;72.10;;;;;;4995222;28;20213;-70
2021/05/31 09:28:58;;;;;;;1.38;1.20;;;27.40;69.70;;;;;;4993844;28;20677;-69
2021/05/31 09:31:28;;;;;;;2.50;1.50;;;27.50;70.10;;;;;;4994337;28;20230;-75
2021/05/31 09:34:01;;;;;;;2.33;1.50;;;26.00;70.80;;;;;;4994912;28;20288;-80
2021/05/31 09:36:29;;;;;;;4.63;1.58;;;25.40;72.60;;;;;;4994969;28;20214;-73
2021/05/31 09:38:57;;;;;;;2.45;1.50;;;25.50;73.60;;;;;;4994466;28;20665;-79
2021/05/31 09:41:25;;;;;;;3.40;1.63;;;25.60;72.90;;;;;;4995240;28;20260;-75
2021/05/31 09:43:56;;;;;;;1.63;1.38;;;25.70;72.40;;;;;;4995369;28;20218;-74
2021/05/31 09:46:38;;;;;;;1.17;1.08;;;25.80;72.80;;;;;;4994572;28;20207;-72
2021/05/31 09:49:16;;;;;;;2.13;1.40;;;26.00;73.90;;;;;;4994595;28;20210;-80
2021/05/31 09:51:54;;;;;;;2.60;1.10;;;25.30;74.30;;;;;;4994673;28;20241;-76
2021/05/31 09:54:31;;;;;;;2.15;1.30;;;25.10;75.00;;;;;;4994419;28;20229;-70
2021/05/31 09:56:58;;;;;;;1.38;1.27;;;25.00;75.00;;;;;;4994689;28;20593;-70
2021/05/31 09:59:27;;;;;;;1.55;1.27;;;25.00;75.50;;;;;;4994422;28;20213;-72
2021/05/31 10:01:58;;;;;;;1.63;1.30;;;24.70;76.50;;;;;;4994605;28;20214;-71
2021/05/31 10:04:32;;;;;;;2.97;1.40;;;24.40;75.70;;;;;;4994420;28;20661;-69
2021/05/31 10:07:11;;;;;;;1.60;1.13;;;24.30;76.30;;;;;;4990137;28;20244;-78
2021/05/31 10:09:38;;;;;;;1.52;1.10;;;24.10;76.60;;;;;;4993199;28;20609;-73
2021/05/31 10:12:06;;;;;;;2.17;1.38;;;24.10;76.10;;;;;;4993128;28;20218;-73
2021/05/31 10:14:32;;;;;;;2.60;1.50;;;23.80;75.70;;;;;;4993225;28;20220;-72
2021/05/31 10:17:00;;;;;;;1.60;1.38;;;23.80;75.40;;;;;;4994044;28;20225;-81
2021/05/31 10:19:27;;;;;;;3.28;1.40;;;24.00;78.20;;;;;;4994576;28;20218;-73
2021/05/31 10:21:53;;;;;;;1.30;1.15;;;23.70;76.70;;;;;;4994984;28;20210;-70
2021/05/31 10:24:20;;;;;;;1.90;1.20;;;23.70;76.80;;;;;;4994408;28;20234;-80
2021/05/31 10:26:47;;;;;;;1.75;1.35;;;23.80;78.70;;;;;;4994031;28;20206;-76
2021/05/31 10:29:13;;;;;;;2.55;1.40;;;24.00;76.80;;;;;;4994128;28;20228;-72
2021/05/31 10:31:44;;;;;;;1.67;1.30;;;23.80;76.80;;;;;;4994566;28;20329;-85
2021/05/31 10:34:20;;;;;;;1.38;1.05;;;23.50;77.50;;;;;;4994861;28;20234;-74
2021/05/31 10:36:50;;;;;;;3.85;1.33;;;23.30;77.30;;;;;;4994093;28;20213;-73
2021/05/31 10:39:24;;;;;;;1.70;1.20;;;23.30;77.50;;;;;;4993094;28;20206;-77
2021/05/31 10:41:51;;;;;;;1.60;1.20;;;23.50;79.40;;;;;;4994376;28;20210;-72
2021/05/31 10:44:18;;;;;;;1.98;1.48;;;23.60;78.70;;;;;;4994024;28;20235;-76
2021/05/31 10:46:45;;;;;;;2.20;1.40;;;23.80;79.50;;;;;;4993877;28;20564;-75
2021/05/31 10:49:19;;;;;;;2.10;1.58;;;23.70;78.10;;;;;;4993700;28;20237;-73
2021/05/31 10:51:45;;;;;;;4.78;1.50;;;23.30;79.30;;;;;;4993782;28;20238;-71
2021/05/31 10:54:13;;;;;;;1.70;1.23;;;23.30;78.10;;;;;;4993671;28;20232;-74
2021/05/31 10:56:41;;;;;;;3.33;1.75;;;23.00;78.90;;;;;;4993885;28;20209;-75
2021/05/31 10:59:07;;;;;;;2.33;1.58;;;23.10;80.40;;;;;;4993893;28;20652;-73
2021/05/31 11:01:39;;;;;;;2.97;1.30;;;23.50;78.90;;;;;;4993581;28;20269;-73
2021/05/31 11:04:07;;;;;;;3.20;1.55;;;23.60;79.50;;;;;;4993840;28;20227;-72
2021/05/31 11:06:43;;;;;;;2.00;1.60;;;23.60;81.10;;;;;;4993687;28;20210;-71
2021/05/31 11:09:10;;;;;;;4.72;1.77;;;23.60;78.00;;;;;;4993516;28;20209;-74
2021/05/31 11:11:38;;;;;;;3.83;1.85;;;23.30;79.10;;;;;;4993251;28;20234;-76
2021/05/31 11:14:06;;;;;;;3.65;1.85;;;23.00;78.60;;;;;;4993322;28;20226;-75
2021/05/31 11:16:34;;;;;;;2.65;1.60;;;23.00;79.30;;;;;;4992941;28;20273;-69
2021/05/31 11:19:02;;;;;;;3.67;1.83;;;23.00;79.10;;;;;;4993322;28;20691;-75
2021/05/31 11:21:37;;;;;;;2.65;1.75;;;23.00;78.40;;;;;;4993299;28;20213;-73
2021/05/31 11:24:07;;;;;;;3.60;1.73;;;23.10;80.50;;;;;;4993215;28;20689;-78
2021/05/31 11:26:35;;;;;;;4.85;1.85;;;23.30;79.90;;;;;;4993763;28;20210;-71
2021/05/31 11:29:04;;;;;;;3.75;1.63;;;23.40;81.00;;;;;;4993513;28;20265;-72
2021/05/31 11:31:31;;;;;;;3.13;1.90;;;23.50;79.60;;;;;;4992889;28;20705;-75
2021/05/31 11:33:57;;;;;;;4.60;1.95;;;23.40;79.40;;;;;;4993397;28;20222;-76
2021/05/31 11:36:28;;;;;;;2.42;1.80;;;23.20;79.10;;;;;;4993698;28;20210;-76
2021/05/31 11:38:55;;;;;;;3.05;1.70;;;23.00;79.00;;;;;;4993650;28;20216;-74
2021/05/31 11:41:31;;;;;;;3.50;1.95;;;23.10;79.90;;;;;;4993045;28;20669;-73
2021/05/31 11:43:57;;;;;;;2.50;1.80;;;23.20;79.50;;;;;;4993049;28;20570;-70
2021/05/31 11:46:24;;;;;;;4.82;1.63;;;22.80;80.30;;;;;;4993251;28;20215;-74
2021/05/31 11:48:50;;;;;;;4.53;1.80;;;23.00;81.10;;;;;;4993004;28;20665;-74
2021/05/31 11:51:16;;;;;;;3.78;1.80;;;22.90;80.90;;;;;;4993390;28;20242;-73
2021/05/31 11:53:45;;;;;;;5.10;1.60;;;22.70;82.50;;;;;;4997373;28;20233;-70
2021/05/31 11:56:12;;;;;;;1.83;1.55;;;22.70;83.60;;;;;;4993717;28;20202;-78
2021/05/31 11:58:41;;;;;;;1.83;1.40;;;23.00;83.90;;;;;;4995789;28;20345;-72
2021/05/31 12:01:10;;;;;;;2.78;1.60;;;23.20;82.90;;;;;;4996666;28;20209;-77
2021/05/31 12:03:38;;;;;;;2.08;1.60;;;23.10;81.50;;;;;;4995512;28;20229;-77
2021/05/31 12:06:12;;;;;;;3.97;1.63;;;23.10;82.50;;;;;;4995571;28;20684;-78
2021/05/31 12:08:38;;;;;;;2.83;1.77;;;23.00;82.50;;;;;;4995808;28;20210;-75
2021/05/31 12:11:04;;;;;;;3.38;1.92;;;22.80;81.70;;;;;;4995345;28;20234;-75
2021/05/31 12:13:33;;;;;;;4.53;1.52;;;22.90;82.60;;;;;;4995201;28;20578;-75
2021/05/31 12:16:11;;;;;;;1.55;1.38;;;23.00;81.70;;;;;;4977587;28;20317;-78
2021/05/31 12:18:37;;;;;;;3.70;1.42;;;23.10;80.90;;;;;;4994631;28;20210;-77
2021/05/31 12:21:04;;;;;;;1.58;1.33;;;23.30;80.10;;;;;;4997183;28;20214;-76
2021/05/31 12:23:31;;;;;;;2.80;1.65;;;23.50;81.70;;;;;;4995686;28;20227;-80
2021/05/31 12:26:02;;;;;;;2.35;1.35;;;23.40;79.20;;;;;;4995270;28;20662;-77
2021/05/31 12:28:30;;;;;;;2.22;1.30;;;23.50;79.70;;;;;;4995814;28;20260;-78
2021/05/31 12:30:57;;;;;;;2.75;1.65;;;23.50;80.10;;;;;;4989587;28;20596;-80
2021/05/31 12:33:25;;;;;;;2.10;1.25;;;23.40;79.70;;;;;;4994393;28;20651;-74
2021/05/31 12:35:51;;;;;;;3.17;2.20;;;23.20;78.90;;;;;;4994240;28;20213;-79
2021/05/31 12:38:19;;;;;;;1.90;1.40;;;23.30;80.50;;;;;;4995030;28;20210;-72
2021/05/31 12:40:46;;;;;;;2.88;1.42;;;23.30;79.30;;;;;;4994229;28;20216;-75
2021/05/31 12:43:13;;;;;;;3.55;1.60;;;23.20;79.10;;;;;;4994619;28;20261;-75
2021/05/31 12:45:48;;;;;;;3.10;1.40;;;23.10;78.50;;;;;;4994556;28;20296;-75
2021/05/31 12:48:16;;;;;;;3.70;1.40;;;23.00;80.90;;;;;;4993853;28;20213;-78
2021/05/31 12:50:44;;;;;;;1.50;1.20;;;23.20;79.50;;;;;;4994316;28;20234;-76
2021/05/31 12:53:12;;;;;;;3.13;1.20;;;23.50;80.60;;;;;;4988970;28;20393;-76
2021/05/31 12:55:39;;;;;;;1.98;1.52;;;23.70;80.70;;;;;;4993885;28;20207;-74
2021/05/31 12:58:11;;;;;;;2.00;1.48;;;23.70;80.30;;;;;;4994324;28;20277;-73
2021/05/31 13:00:37;;;;;;;2.47;1.42;;;23.70;79.30;;;;;;4994059;28;20301;-73
2021/05/31 13:03:04;;;;;;;1.65;1.00;;;23.50;76.20;;;;;;4992840;28;20222;-82
2021/05/31 13:05:32;;;;;;;2.40;1.52;;;23.40;76.80;;;;;;4994382;28;20206;-76
2021/05/31 13:08:03;;;;;;;5.20;1.50;;;23.40;75.80;;;;;;4994555;28;20213;-88
2021/05/31 13:10:31;;;;;;;3.88;1.98;;;23.40;75.00;;;;;;4997573;28;20230;-86
2021/05/31 13:12:58;;;;;;;3.83;1.30;;;23.40;77.40;;;;;;4997398;28;20226;-79
2021/05/31 13:15:37;;;;;;;2.30;1.30;;;23.50;77.30;;;;;;4996035;28;20644;-70
2021/05/31 13:18:08;;;;;;;3.08;1.20;;;23.60;76.30;;;;;;4990844;28;20515;-73
2021/05/31 13:20:35;;;;;;;3.92;1.40;;;23.70;76.40;;;;;;4994203;28;20229;-70
2021/05/31 13:23:04;;;;;;;4.72;1.38;;;23.70;77.30;;;;;;4990934;28;20226;-72
2021/05/31 13:25:32;;;;;;;3.95;1.70;;;23.50;78.30;;;;;;4993754;28;20203;-70
2021/05/31 13:28:09;;;;;;;2.60;1.67;;;23.70;77.40;;;;;;4993638;28;20210;-70
2021/05/31 13:30:35;;;;;;;4.25;1.80;;;23.80;79.70;;;;;;4993391;28;20236;-76
2021/05/31 13:33:05;;;;;;;2.42;1.35;;;23.70;77.50;;;;;;4993562;28;20261;-76
2021/05/31 13:35:32;;;;;;;2.35;1.58;;;23.90;79.60;;;;;;4994601;28;20301;-85
2021/05/31 13:38:01;;;;;;;4.20;1.92;;;23.70;76.60;;;;;;4994009;28;20560;-81
2021/05/31 13:40:31;;;;;;;1.90;1.60;;;23.50;76.50;;;;;;4994315;28;20214;-84
2021/05/31 13:43:03;;;;;;;2.50;1.60;;;23.40;76.80;;;;;;4993525;28;20585;-78
2021/05/31 13:45:30;;;;;;;5.68;1.75;;;23.40;78.20;;;;;;4994096;28;20213;-76
2021/05/31 13:47:56;;;;;;;2.05;1.50;;;23.50;79.00;;;;;;4994091;28;20213;-91
2021/05/31 13:50:26;;;;;;;4.40;1.90;;;23.50;76.70;;;;;;4993748;28;20679;-81
2021/05/31 13:52:54;;;;;;;4.28;1.70;;;23.40;77.20;;;;;;4993016;28;20321;-80
2021/05/31 13:55:20;;;;;;;1.88;1.48;;;23.50;76.50;;;;;;4993675;28;20249;-79
2021/05/31 13:57:48;;;;;;;2.70;1.73;;;23.50;78.50;;;;;;4993665;28;20309;-81
2021/05/31 14:00:16;;;;;;;2.10;1.73;;;23.60;78.50;;;;;;4993081;28;20731;-82
2021/05/31 14:02:44;;;;;;;3.33;1.48;;;23.50;78.80;;;;;;4993622;28;20237;-79
2021/05/31 14:05:11;;;;;;;3.28;1.70;;;23.60;79.20;;;;;;4993918;28;20210;-81
2021/05/31 14:07:38;;;;;;;1.85;1.40;;;23.80;78.60;;;;;;4992752;28;20411;-75
2021/05/31 14:10:05;;;;;;;2.13;1.42;;;23.80;79.50;;;;;;4993273;28;20217;-77
2021/05/31 14:12:31;;;;;;;2.95;1.60;;;23.60;78.10;;;;;;4993162;28;20230;-82
2021/05/31 14:14:59;;;;;;;3.22;1.60;;;23.50;76.90;;;;;;4991820;28;20206;-78
2021/05/31 14:17:25;;;;;;;2.45;1.48;;;23.40;78.10;;;;;;4993104;28;20218;-81
2021/05/31 14:19:52;;;;;;;4.65;2.67;;;23.50;79.10;;;;;;4996158;28;20210;-80
2021/05/31 14:22:19;;;;;;;2.88;1.58;;;23.80;77.40;;;;;;4994380;28;20238;-89
2021/05/31 14:24:45;;;;;;;3.55;1.50;;;24.10;77.90;;;;;;4995323;28;20225;-76
2021/05/31 14:27:17;;;;;;;3.38;1.73;;;23.70;76.60;;;;;;4988218;28;20214;-80
2021/05/31 14:29:43;;;;;;;2.33;1.65;;;23.70;77.50;;;;;;4993960;28;20589;-76
2021/05/31 14:32:12;;;;;;;3.15;1.80;;;23.70;77.10;;;;;;4993503;28;20700;-80
2021/05/31 14:34:38;;;;;;;2.33;1.77;;;23.50;76.80;;;;;;4993900;28;20214;-80
2021/05/31 14:37:07;;;;;;;2.38;1.73;;;23.40;77.50;;;;;;4993849;28;20211;-80
2021/05/31 14:39:33;;;;;;;2.00;1.33;;;23.60;78.40;;;;;;4994034;28;20202;-81
2021/05/31 14:42:00;;;;;;;4.97;1.70;;;23.50;78.20;;;;;;4993768;28;20256;-80
2021/05/31 14:44:27;;;;;;;3.35;1.75;;;23.60;79.20;;;;;;4993810;28;20616;-80
2021/05/31 14:46:53;;;;;;;3.97;1.60;;;23.70;78.10;;;;;;4993554;28;20207;-83
2021/05/31 14:49:22;;;;;;;2.97;1.60;;;23.80;78.20;;;;;;4993496;28;20669;-81
2021/05/31 14:51:48;;;;;;;3.65;1.98;;;23.80;78.30;;;;;;4994068;28;20329;-73
2021/05/31 14:54:15;;;;;;;2.97;1.70;;;24.00;77.40;;;;;;4993703;28;20237;-80
2021/05/31 14:56:41;;;;;;;5.50;1.70;;;24.10;78.20;;;;;;4993181;28;20250;-85
2021/05/31 14:59:07;;;;;;;2.03;1.58;;;23.90;77.40;;;;;;4993525;28;20202;-79
2021/05/31 15:01:34;;;;;;;2.83;1.50;;;23.70;78.20;;;;;;4993588;28;20731;-83
2021/05/31 15:04:00;;;;;;;5.22;1.67;;;23.40;78.40;;;;;;4993572;28;20585;-84
2021/05/31 15:06:28;;;;;;;2.67;1.60;;;23.30;78.40;;;;;;4993377;28;20202;-75
2021/05/31 15:08:54;;;;;;;2.63;1.83;;;23.40;78.40;;;;;;4993557;28;20214;-75
2021/05/31 15:11:20;;;;;;;2.55;1.70;;;23.40;78.40;;;;;;4993139;28;20234;-82
2021/05/31 15:13:46;;;;;;;2.75;2.05;;;23.50;79.10;;;;;;4993441;28;20227;-81
2021/05/31 15:16:13;;;;;;;2.72;1.60;;;23.60;78.20;;;;;;4992730;28;20228;-81
2021/05/31 15:18:39;;;;;;;2.22;1.67;;;23.70;77.90;;;;;;4992535;28;20221;-81
2021/05/31 15:21:05;;;;;;;2.17;1.65;;;23.60;77.70;;;;;;4993566;28;20252;-79
2021/05/31 15:23:34;;;;;;;4.10;1.70;;;23.60;78.50;;;;;;4992577;28;20269;-82
2021/05/31 15:26:00;;;;;;;1.80;1.58;;;23.80;78.40;;;;;;4988047;28;20624;-80
2021/05/31 15:28:26;;;;;;;3.10;1.60;;;23.90;78.60;;;;;;4991456;28;20202;-79
2021/05/31 15:30:53;;;;;;;4.07;1.40;;;23.90;77.70;;;;;;4992776;28;20234;-78
2021/05/31 15:33:19;;;;;;;3.08;1.50;;;24.00;76.00;;;;;;4992605;28;20222;-81
2021/05/31 15:35:45;;;;;;;4.07;1.80;;;23.80;75.70;;;;;;4993208;28;20213;-81
2021/05/31 15:38:12;;;;;;;3.13;1.70;;;23.70;76.90;;;;;;4992751;28;20719;-79
2021/05/31 15:40:40;;;;;;;2.22;1.90;;;23.70;77.20;;;;;;4992716;28;20206;-81
2021/05/31 15:43:06;;;;;;;3.92;1.55;;;23.70;76.40;;;;;;4992802;28;20222;-79
2021/05/31 15:45:34;;;;;;;3.65;1.80;;;23.70;77.20;;;;;;4979259;28;20610;-81
2021/05/31 15:48:02;;;;;;;2.50;1.60;;;23.80;78.10;;;;;;4973968;28;20261;-77
2021/05/31 15:50:31;;;;;;;2.00;1.50;;;23.80;77.80;;;;;;4973358;28;20258;-75
2021/05/31 15:52:58;;;;;;;1.75;1.55;;;23.80;77.70;;;;;;4973416;28;20227;-76
2021/05/31 15:55:24;;;;;;;6.50;1.75;;;23.80;76.90;;;;;;4973560;28;20227;-72
2021/05/31 15:57:52;;;;;;;4.43;1.42;;;23.60;75.20;;;;;;4991514;28;20209;-75
2021/05/31 16:00:19;;;;;;;3.35;1.65;;;23.40;76.70;;;;;;4992399;28;20215;-73
2021/05/31 16:02:45;;;;;;;2.28;1.60;;;23.40;78.30;;;;;;4992022;28;20581;-75
2021/05/31 16:05:12;;;;;;;4.82;1.90;;;23.50;77.20;;;;;;4993224;28;20218;-75
2021/05/31 16:07:39;;;;;;;2.95;1.60;;;23.30;76.90;;;;;;4992863;28;20210;-73
2021/05/31 16:10:06;;;;;;;2.33;1.50;;;23.40;78.60;;;;;;4992782;28;20206;-74
2021/05/31 16:12:33;;;;;;;3.30;1.50;;;23.40;78.10;;;;;;4992345;28;20274;-75
2021/05/31 16:15:00;;;;;;;2.35;1.85;;;23.40;78.20;;;;;;4992739;28;20214;-75
2021/05/31 16:17:28;;;;;;;1.60;1.33;;;23.40;78.10;;;;;;4992342;28;20289;-77
2021/05/31 16:19:56;;;;;;;3.17;1.60;;;23.40;78.10;;;;;;4992889;28;20305;-78
2021/05/31 16:22:25;;;;;;;2.35;1.42;;;23.40;78.80;;;;;;4992278;28;20741;-77
2021/05/31 16:24:59;;;;;;;2.97;1.45;;;23.40;78.90;;;;;;4992587;28;20265;-75
2021/05/31 16:27:26;;;;;;;2.58;1.65;;;23.70;79.30;;;;;;4992132;28;20216;-76
2021/05/31 16:29:52;;;;;;;2.95;1.80;;;23.70;77.70;;;;;;4992761;28;20206;-76
2021/05/31 16:32:20;;;;;;;2.55;1.77;;;23.50;77.60;;;;;;4992430;28;20238;-74
2021/05/31 16:34:46;;;;;;;1.90;1.60;;;23.30;78.40;;;;;;4992558;28;20584;-78
2021/05/31 16:37:12;;;;;;;4.50;2.38;;;23.40;79.40;;;;;;4992964;28;20217;-75
2021/05/31 16:39:39;;;;;;;1.95;1.40;;;23.40;76.90;;;;;;4996320;28;20225;-74
2021/05/31 16:42:05;;;;;;;2.03;1.30;;;23.40;76.20;;;;;;4995914;28;20293;-76
2021/05/31 16:44:32;;;;;;;2.50;1.15;;;23.50;77.20;;;;;;4996243;28;20206;-73
2021/05/31 16:46:58;;;;;;;5.38;1.45;;;23.50;77.60;;;;;;4995896;28;20218;-77
2021/05/31 16:49:26;;;;;;;2.78;1.45;;;23.60;77.40;;;;;;4996519;28;20214;-76
2021/05/31 16:51:56;;;;;;;2.22;1.60;;;23.60;76.80;;;;;;4995519;28;20237;-71
2021/05/31 16:54:22;;;;;;;2.47;1.40;;;23.40;77.60;;;;;;4995437;28;20593;-76
2021/05/31 16:56:49;;;;;;;1.85;1.42;;;23.40;78.10;;;;;;4996111;28;20206;-77
2021/05/31 16:59:15;;;;;;;3.28;1.73;;;23.40;78.50;;;;;;4996128;28;20241;-76
2021/05/31 17:01:41;;;;;;;3.65;1.70;;;23.50;79.00;;;;;;4995798;28;20684;-77
2021/05/31 17:04:08;;;;;;;3.08;1.52;;;23.40;78.90;;;;;;4995824;28;20233;-80
2021/05/31 17:06:38;;;;;;;2.58;1.40;;;23.40;77.70;;;;;;4996180;28;20218;-73
2021/05/31 17:09:07;;;;;;;2.60;1.58;;;23.40;78.80;;;;;;4995470;28;20312;-76
2021/05/31 17:19:55;;;;;;;4.55;1.33;;;23.20;78.60;;;;;;4995233;28;20688;-74
2021/05/31 17:22:23;;;;;;;2.25;1.58;;;23.20;79.60;;;;;;4995679;28;20256;-79
2021/05/31 17:24:49;;;;;;;1.90;1.30;;;23.20;78.70;;;;;;4995199;28;20740;-79
2021/05/31 17:27:17;;;;;;;3.42;1.90;;;23.10;79.20;;;;;;4995560;28;20202;-75
2021/05/31 17:29:45;;;;;;;2.38;1.70;;;23.10;79.20;;;;;;4995893;28;20207;-76
2021/05/31 17:32:30;;;;;;;3.60;1.63;;;23.10;79.60;;;;;;4995212;28;20245;-75
2021/05/31 17:34:58;;;;;;;2.67;1.38;;;23.10;78.40;;;;;;4995336;28;20211;-78
2021/05/31 17:37:27;;;;;;;4.75;1.65;;;23.20;78.80;;;;;;4995082;28;20302;-77
2021/05/31 17:40:01;;;;;;;1.70;1.50;;;23.30;78.10;;;;;;4995454;28;20253;-79
2021/05/31 17:42:28;;;;;;;4.05;1.58;;;23.20;78.10;;;;;;4994980;28;20226;-77
2021/05/31 17:44:54;;;;;;;2.42;1.40;;;23.00;78.50;;;;;;4995192;28;20214;-78
2021/05/31 17:47:20;;;;;;;1.80;1.40;;;22.90;78.50;;;;;;4994903;28;20691;-77
2021/05/31 17:49:47;;;;;;;2.13;1.50;;;22.90;79.60;;;;;;4995151;28;20206;-76
2021/05/31 17:52:13;;;;;;;4.03;1.52;;;22.90;79.30;;;;;;4995175;28;20238;-78
2021/05/31 17:54:41;;;;;;;2.40;1.35;;;23.10;80.00;;;;;;4994830;28;20573;-77
2021/05/31 17:57:07;;;;;;;3.03;1.83;;;23.30;80.00;;;;;;4994874;28;20213;-77
2021/05/31 17:59:33;;;;;;;2.88;1.60;;;23.30;80.40;;;;;;4994945;28;20210;-77
2021/05/31 18:02:01;;;;;;;2.72;1.70;;;23.30;82.30;;;;;;4994537;28;20253;-74
2021/05/31 18:04:27;;;;;;;2.35;1.67;;;23.30;81.60;;;;;;4994679;28;20217;-78
2021/05/31 18:06:54;;;;;;;2.30;1.60;;;23.10;80.60;;;;;;4994620;28;20206;-76
2021/05/31 18:09:20;;;;;;;3.20;1.70;;;22.90;82.10;;;;;;4994492;28;20203;-76
2021/05/31 18:11:48;;;;;;;3.20;1.77;;;22.80;80.60;;;;;;4994339;28;20234;-75
2021/05/31 18:14:14;;;;;;;4.57;2.15;;;22.70;81.00;;;;;;4994659;28;20305;-77
2021/05/31 18:16:41;;;;;;;2.50;1.40;;;22.70;81.60;;;;;;4994177;28;20218;-76
2021/05/31 18:19:07;;;;;;;4.05;1.92;;;22.70;82.30;;;;;;4993753;28;20669;-72
2021/05/31 18:21:33;;;;;;;3.67;1.52;;;22.80;81.80;;;;;;4994373;28;20206;-73
2021/05/31 18:24:00;;;;;;;2.95;1.60;;;22.80;81.50;;;;;;4994259;28;20222;-70
2021/05/31 18:26:26;;;;;;;3.67;1.48;;;22.70;82.20;;;;;;4994226;28;20621;-73
2021/05/31 18:28:54;;;;;;;2.75;1.85;;;22.70;81.80;;;;;;4993207;28;20199;-75
2021/05/31 18:31:20;;;;;;;3.17;1.70;;;22.60;81.60;;;;;;4989482;28;20366;-80
2021/05/31 18:33:49;;;;;;;2.70;1.70;;;22.60;82.00;;;;;;4993787;28;20696;-74
2021/05/31 18:36:17;;;;;;;4.40;1.90;;;22.50;82.70;;;;;;4994095;28;20273;-75
2021/05/31 18:38:44;;;;;;;2.20;1.65;;;22.40;82.80;;;;;;4993328;28;20218;-72
2021/05/31 18:41:11;;;;;;;1.80;1.60;;;22.30;82.70;;;;;;4993697;28;20206;-77
2021/05/31 18:43:38;;;;;;;2.75;1.75;;;22.30;84.10;;;;;;4993344;28;20760;-78
2021/05/31 18:46:06;;;;;;;2.75;1.52;;;22.40;83.70;;;;;;4993511;28;20210;-75
2021/05/31 18:48:32;;;;;;;2.25;1.42;;;22.50;83.60;;;;;;4993412;28;20217;-79
2021/05/31 18:51:03;;;;;;;2.85;1.80;;;22.50;83.90;;;;;;4993577;28;20206;-75
2021/05/31 18:53:30;;;;;;;4.63;1.60;;;22.40;83.60;;;;;;4993594;28;20230;-76
2021/05/31 18:55:56;;;;;;;1.58;1.35;;;22.40;83.80;;;;;;4993574;28;20217;-76
2021/05/31 18:58:22;;;;;;;2.40;1.63;;;22.30;84.20;;;;;;4993709;28;20210;-75
2021/05/31 19:00:51;;;;;;;3.10;1.80;;;22.20;84.30;;;;;;4992558;28;20294;-77
2021/05/31 19:03:19;;;;;;;3.53;1.52;;;22.20;84.70;;;;;;4993180;28;20230;-79
2021/05/31 19:05:45;;;;;;;2.00;1.55;;;22.20;84.70;;;;;;4994056;28;20211;-78
2021/05/31 19:08:11;;;;;;;2.20;1.55;;;22.10;85.40;;;;;;4992456;28;20268;-78
2021/05/31 19:10:38;;;;;;;4.20;1.73;;;22.20;85.70;;;;;;4983493;28;20210;-77
2021/05/31 19:13:06;;;;;;;1.92;1.30;;;22.30;86.10;;;;;;4988602;28;20237;-78
2021/05/31 19:15:32;;;;;;;1.55;1.35;;;22.30;86.60;;;;;;4989694;28;20261;-76
2021/05/31 19:17:59;;;;;;;2.35;1.80;;;22.20;88.40;;;;;;4990154;28;20210;-76
2021/05/31 19:20:27;;;;;;;4.10;1.90;;;22.20;88.50;;;;;;4984674;28;20567;-76
2021/05/31 19:22:53;;;;;;;3.38;1.67;;;22.10;90.30;;;;;;4980148;28;20222;-75
2021/05/31 19:25:20;;;;;;;2.05;1.60;;;22.00;90.30;;;;;;4982925;28;20207;-77
2021/05/31 19:27:46;;;;;;;3.03;1.88;;;21.90;90.80;;;;;;4991331;28;20202;-74
2021/05/31 19:30:17;;;;;;;3.15;1.85;;;21.80;91.90;;;;;;4983503;28;20203;-74
2021/05/31 19:32:43;;;;;;;2.67;1.73;;;21.70;92.40;;;;;;4980980;28;20242;-76
2021/05/31 19:35:11;;;;;;;2.15;1.52;;;21.60;91.30;;;;;;4980981;28;20209;-77
2021/05/31 19:37:38;;;;;;;3.45;2.10;;;21.40;92.50;;;;;;4987630;28;20215;-76
2021/05/31 19:40:09;;;;;;;2.42;1.83;;;21.30;93.20;;;;;;4981342;28;20217;-73
2021/05/31 19:42:35;;;;;;;2.80;1.80;;;21.10;93.70;;;;;;4987468;28;20234;-76
2021/05/31 19:45:02;;;;;;;3.22;1.80;;;21.00;94.00;;;;;;4984719;28;20546;-75
2021/05/31 19:47:28;;;;;;;2.63;1.80;;;20.80;94.40;;;;;;4982842;28;20203;-76
2021/05/31 19:49:55;;;;;;;3.38;2.10;;;20.70;94.50;;;;;;4984960;28;20222;-74
2021/05/31 19:52:21;;;;;;;3.83;1.77;;;20.60;94.90;;;;;;4985104;28;20245;-72
2021/05/31 19:55:07;;;;;;;2.33;1.70;;;20.50;95.30;;;;;;4984177;28;20206;-75
2021/05/31 20:00:27;;;;;;;3.40;1.95;;;20.30;95.20;;;;;;4945998;28;20670;-74
2021/05/31 20:02:53;;;;;;;2.13;1.85;;;20.10;95.60;;;;;;4981158;28;20238;-75
2021/05/31 20:05:20;;;;;;;2.50;1.70;;;20.00;96.10;;;;;;4989306;28;20209;-76
2021/05/31 20:07:47;;;;;;;3.17;1.77;;;19.90;96.50;;;;;;4980986;28;20210;-76
2021/05/31 20:10:17;;;;;;;2.65;1.90;;;19.80;96.70;;;;;;4987738;28;20728;-77
2021/05/31 20:12:45;;;;;;;3.37;2.47;;;19.60;97.40;;;;;;4985162;28;20677;-77
2021/05/31 20:15:14;;;;;;;3.00;1.85;;;19.60;97.30;;;;;;4991342;28;20200;-76
2021/05/31 20:17:41;;;;;;;2.20;1.63;;;19.50;97.60;;;;;;4984667;28;20235;-76